sensor_id;sensor_type;location;lat;lon;timestamp;P1;durP1;ratioP1;P2;durP2;ratioP2
54307;SDS011;40208;39.778;2.710;2023-12-22T00:02:10;13.70;;;7.63;;
54307;SDS011;40208;39.778;2.710;2023-12-22T00:04:55;19.83;;;8.35;;
54307;SDS011;40208;39.778;2.710;2023-12-22T00:07:40;16.85;;;9.00;;
54307;SDS011;40208;39.778;2.710;2023-12-22T00:10:25;18.75;;;9.80;;
54307;SDS011;40208;39.778;2.710;2023-12-22T00:13:09;17.50;;;9.57;;
54307;SDS011;40208;39.778;2.710;2023-12-22T00:15:54;18.35;;;9.60;;
54307;SDS011;40208;39.778;2.710;2023-12-22T00:18:39;24.45;;;9.85;;
54307;SDS011;40208;39.778;2.710;2023-12-22T00:21:24;15.65;;;8.43;;
54307;SDS011;40208;39.778;2.710;2023-12-22T00:24:09;22.60;;;9.52;;
54307;SDS011;40208;39.778;2.710;2023-12-22T00:26:54;14.65;;;8.45;;
54307;SDS011;40208;39.778;2.710;2023-12-22T00:29:39;18.75;;;8.45;;
54307;SDS011;40208;39.778;2.710;2023-12-22T00:32:23;17.67;;;8.32;;
54307;SDS011;40208;39.778;2.710;2023-12-22T00:35:08;16.95;;;7.95;;
54307;SDS011;40208;39.778;2.710;2023-12-22T00:37:53;17.40;;;7.60;;
54307;SDS011;40208;39.778;2.710;2023-12-22T00:40:38;18.50;;;6.50;;
54307;SDS011;40208;39.778;2.710;2023-12-22T00:43:23;18.88;;;7.35;;
54307;SDS011;40208;39.778;2.710;2023-12-22T00:46:08;12.18;;;6.32;;
54307;SDS011;40208;39.778;2.710;2023-12-22T00:48:53;14.32;;;5.85;;
54307;SDS011;40208;39.778;2.710;2023-12-22T00:51:37;15.13;;;7.72;;
54307;SDS011;40208;39.778;2.710;2023-12-22T00:54:22;10.80;;;6.70;;
54307;SDS011;40208;39.778;2.710;2023-12-22T00:57:07;16.85;;;7.82;;
54307;SDS011;40208;39.778;2.710;2023-12-22T00:59:52;16.73;;;7.55;;
54307;SDS011;40208;39.778;2.710;2023-12-22T01:02:37;16.45;;;7.13;;
54307;SDS011;40208;39.778;2.710;2023-12-22T01:05:21;16.45;;;6.65;;
54307;SDS011;40208;39.778;2.710;2023-12-22T01:08:06;12.70;;;6.30;;
54307;SDS011;40208;39.778;2.710;2023-12-22T01:10:51;9.05;;;5.45;;
54307;SDS011;40208;39.778;2.710;2023-12-22T01:13:36;12.60;;;4.72;;
54307;SDS011;40208;39.778;2.710;2023-12-22T01:16:21;13.43;;;6.15;;
54307;SDS011;40208;39.778;2.710;2023-12-22T01:19:07;15.82;;;6.40;;
54307;SDS011;40208;39.778;2.710;2023-12-22T01:21:52;12.38;;;5.35;;
54307;SDS011;40208;39.778;2.710;2023-12-22T01:24:37;12.48;;;5.20;;
54307;SDS011;40208;39.778;2.710;2023-12-22T01:27:25;12.13;;;4.07;;
54307;SDS011;40208;39.778;2.710;2023-12-22T01:30:09;10.75;;;3.90;;
54307;SDS011;40208;39.778;2.710;2023-12-22T01:32:54;11.02;;;3.05;;
54307;SDS011;40208;39.778;2.710;2023-12-22T01:35:39;7.95;;;3.00;;
54307;SDS011;40208;39.778;2.710;2023-12-22T01:38:24;12.68;;;5.55;;
54307;SDS011;40208;39.778;2.710;2023-12-22T01:41:09;15.85;;;7.07;;
54307;SDS011;40208;39.778;2.710;2023-12-22T01:43:54;14.68;;;7.45;;
54307;SDS011;40208;39.778;2.710;2023-12-22T01:46:39;18.45;;;7.30;;
54307;SDS011;40208;39.778;2.710;2023-12-22T01:49:23;14.85;;;6.80;;
54307;SDS011;40208;39.778;2.710;2023-12-22T01:52:10;14.98;;;6.95;;
54307;SDS011;40208;39.778;2.710;2023-12-22T01:54:55;10.43;;;4.63;;
54307;SDS011;40208;39.778;2.710;2023-12-22T01:57:40;7.53;;;4.10;;
54307;SDS011;40208;39.778;2.710;2023-12-22T02:00:25;12.70;;;4.25;;
54307;SDS011;40208;39.778;2.710;2023-12-22T02:03:10;10.68;;;4.47;;
54307;SDS011;40208;39.778;2.710;2023-12-22T02:05:56;10.02;;;5.22;;
54307;SDS011;40208;39.778;2.710;2023-12-22T02:08:41;10.90;;;5.43;;
54307;SDS011;40208;39.778;2.710;2023-12-22T02:11:30;11.15;;;4.18;;
54307;SDS011;40208;39.778;2.710;2023-12-22T02:14:15;17.77;;;7.72;;
54307;SDS011;40208;39.778;2.710;2023-12-22T02:17:11;18.17;;;7.78;;
54307;SDS011;40208;39.778;2.710;2023-12-22T02:20:06;20.15;;;8.90;;
54307;SDS011;40208;39.778;2.710;2023-12-22T02:22:52;19.45;;;8.75;;
54307;SDS011;40208;39.778;2.710;2023-12-22T02:25:37;18.95;;;7.68;;
54307;SDS011;40208;39.778;2.710;2023-12-22T02:28:22;15.02;;;7.25;;
54307;SDS011;40208;39.778;2.710;2023-12-22T02:33:53;16.10;;;4.25;;
54307;SDS011;40208;39.778;2.710;2023-12-22T02:36:40;6.93;;;2.70;;
54307;SDS011;40208;39.778;2.710;2023-12-22T02:39:26;6.15;;;2.20;;
54307;SDS011;40208;39.778;2.710;2023-12-22T02:42:11;6.47;;;2.30;;
54307;SDS011;40208;39.778;2.710;2023-12-22T02:44:57;10.02;;;3.90;;
54307;SDS011;40208;39.778;2.710;2023-12-22T02:47:42;9.63;;;4.88;;
54307;SDS011;40208;39.778;2.710;2023-12-22T02:50:27;14.60;;;7.13;;
54307;SDS011;40208;39.778;2.710;2023-12-22T02:53:12;18.75;;;7.00;;
54307;SDS011;40208;39.778;2.710;2023-12-22T02:55:57;11.60;;;6.05;;
54307;SDS011;40208;39.778;2.710;2023-12-22T02:58:42;13.05;;;5.03;;
54307;SDS011;40208;39.778;2.710;2023-12-22T03:01:26;13.50;;;4.80;;
54307;SDS011;40208;39.778;2.710;2023-12-22T03:04:11;8.65;;;4.00;;
54307;SDS011;40208;39.778;2.710;2023-12-22T03:06:56;9.48;;;3.58;;
54307;SDS011;40208;39.778;2.710;2023-12-22T03:09:41;10.88;;;3.50;;
54307;SDS011;40208;39.778;2.710;2023-12-22T03:12:26;14.75;;;5.25;;
54307;SDS011;40208;39.778;2.710;2023-12-22T03:15:11;10.27;;;4.57;;
54307;SDS011;40208;39.778;2.710;2023-12-22T03:17:56;12.60;;;4.65;;
54307;SDS011;40208;39.778;2.710;2023-12-22T03:20:41;13.05;;;4.60;;
54307;SDS011;40208;39.778;2.710;2023-12-22T03:23:25;10.50;;;3.20;;
54307;SDS011;40208;39.778;2.710;2023-12-22T03:26:10;6.68;;;2.90;;
54307;SDS011;40208;39.778;2.710;2023-12-22T03:28:55;6.75;;;3.40;;
54307;SDS011;40208;39.778;2.710;2023-12-22T03:31:40;10.68;;;3.30;;
54307;SDS011;40208;39.778;2.710;2023-12-22T03:34:25;14.35;;;3.83;;
54307;SDS011;40208;39.778;2.710;2023-12-22T03:37:09;7.07;;;2.92;;
54307;SDS011;40208;39.778;2.710;2023-12-22T03:39:54;4.88;;;2.53;;
54307;SDS011;40208;39.778;2.710;2023-12-22T03:42:39;4.45;;;2.28;;
54307;SDS011;40208;39.778;2.710;2023-12-22T03:45:24;6.22;;;2.35;;
54307;SDS011;40208;39.778;2.710;2023-12-22T03:48:09;8.23;;;2.53;;
54307;SDS011;40208;39.778;2.710;2023-12-22T03:50:53;6.43;;;2.53;;
54307;SDS011;40208;39.778;2.710;2023-12-22T03:53:38;7.05;;;2.75;;
54307;SDS011;40208;39.778;2.710;2023-12-22T03:56:23;6.70;;;2.20;;
54307;SDS011;40208;39.778;2.710;2023-12-22T03:59:08;11.65;;;2.80;;
54307;SDS011;40208;39.778;2.710;2023-12-22T04:01:53;5.72;;;2.47;;
54307;SDS011;40208;39.778;2.710;2023-12-22T04:04:39;6.22;;;2.67;;
54307;SDS011;40208;39.778;2.710;2023-12-22T04:07:24;8.52;;;3.03;;
54307;SDS011;40208;39.778;2.710;2023-12-22T04:10:09;18.30;;;4.13;;
54307;SDS011;40208;39.778;2.710;2023-12-22T04:12:53;8.25;;;3.38;;
54307;SDS011;40208;39.778;2.710;2023-12-22T04:15:38;12.88;;;3.15;;
54307;SDS011;40208;39.778;2.710;2023-12-22T04:18:23;11.75;;;3.25;;
54307;SDS011;40208;39.778;2.710;2023-12-22T04:21:08;10.68;;;2.53;;
54307;SDS011;40208;39.778;2.710;2023-12-22T04:23:52;16.75;;;2.65;;
54307;SDS011;40208;39.778;2.710;2023-12-22T04:26:37;21.45;;;2.88;;
54307;SDS011;40208;39.778;2.710;2023-12-22T04:29:22;19.45;;;2.50;;
54307;SDS011;40208;39.778;2.710;2023-12-22T04:32:07;18.75;;;3.05;;
54307;SDS011;40208;39.778;2.710;2023-12-22T04:34:52;23.60;;;4.10;;
54307;SDS011;40208;39.778;2.710;2023-12-22T04:37:37;25.38;;;2.85;;
54307;SDS011;40208;39.778;2.710;2023-12-22T04:40:21;19.15;;;2.90;;
54307;SDS011;40208;39.778;2.710;2023-12-22T04:43:06;15.23;;;2.55;;
54307;SDS011;40208;39.778;2.710;2023-12-22T04:45:51;14.55;;;2.97;;
54307;SDS011;40208;39.778;2.710;2023-12-22T04:48:36;21.50;;;2.95;;
54307;SDS011;40208;39.778;2.710;2023-12-22T04:51:21;18.98;;;2.65;;
54307;SDS011;40208;39.778;2.710;2023-12-22T04:54:05;14.90;;;2.78;;
54307;SDS011;40208;39.778;2.710;2023-12-22T04:56:50;24.20;;;3.65;;
54307;SDS011;40208;39.778;2.710;2023-12-22T04:59:35;19.50;;;3.80;;
54307;SDS011;40208;39.778;2.710;2023-12-22T05:02:20;15.60;;;2.55;;
54307;SDS011;40208;39.778;2.710;2023-12-22T05:05:05;17.67;;;2.92;;
54307;SDS011;40208;39.778;2.710;2023-12-22T05:07:52;24.75;;;3.50;;
54307;SDS011;40208;39.778;2.710;2023-12-22T05:10:37;14.05;;;2.33;;
54307;SDS011;40208;39.778;2.710;2023-12-22T05:13:22;15.30;;;2.60;;
54307;SDS011;40208;39.778;2.710;2023-12-22T05:16:07;30.33;;;3.55;;
54307;SDS011;40208;39.778;2.710;2023-12-22T05:18:51;19.25;;;2.85;;
54307;SDS011;40208;39.778;2.710;2023-12-22T05:21:36;26.38;;;3.55;;
54307;SDS011;40208;39.778;2.710;2023-12-22T05:24:21;17.23;;;3.05;;
54307;SDS011;40208;39.778;2.710;2023-12-22T05:27:06;16.92;;;3.60;;
54307;SDS011;40208;39.778;2.710;2023-12-22T05:29:51;25.13;;;3.75;;
54307;SDS011;40208;39.778;2.710;2023-12-22T05:32:35;17.63;;;3.00;;
54307;SDS011;40208;39.778;2.710;2023-12-22T05:35:20;20.25;;;2.78;;
54307;SDS011;40208;39.778;2.710;2023-12-22T05:38:05;27.40;;;4.03;;
54307;SDS011;40208;39.778;2.710;2023-12-22T05:40:50;23.10;;;2.88;;
54307;SDS011;40208;39.778;2.710;2023-12-22T05:43:35;17.45;;;2.60;;
54307;SDS011;40208;39.778;2.710;2023-12-22T05:46:19;23.88;;;3.25;;
54307;SDS011;40208;39.778;2.710;2023-12-22T05:49:04;13.07;;;2.60;;
54307;SDS011;40208;39.778;2.710;2023-12-22T05:51:49;17.25;;;2.90;;
54307;SDS011;40208;39.778;2.710;2023-12-22T05:54:34;20.83;;;3.92;;
54307;SDS011;40208;39.778;2.710;2023-12-22T05:57:19;29.02;;;3.58;;
54307;SDS011;40208;39.778;2.710;2023-12-22T06:00:04;21.55;;;3.25;;
54307;SDS011;40208;39.778;2.710;2023-12-22T06:02:51;23.17;;;3.88;;
54307;SDS011;40208;39.778;2.710;2023-12-22T06:05:36;32.58;;;3.83;;
54307;SDS011;40208;39.778;2.710;2023-12-22T06:08:21;19.00;;;3.00;;
54307;SDS011;40208;39.778;2.710;2023-12-22T06:11:06;25.00;;;3.80;;
54307;SDS011;40208;39.778;2.710;2023-12-22T06:13:51;22.10;;;4.03;;
54307;SDS011;40208;39.778;2.710;2023-12-22T06:16:35;23.35;;;4.15;;
54307;SDS011;40208;39.778;2.710;2023-12-22T06:19:20;17.90;;;3.22;;
54307;SDS011;40208;39.778;2.710;2023-12-22T06:22:06;17.58;;;3.60;;
54307;SDS011;40208;39.778;2.710;2023-12-22T06:24:51;21.35;;;3.25;;
54307;SDS011;40208;39.778;2.710;2023-12-22T06:27:36;19.00;;;2.88;;
54307;SDS011;40208;39.778;2.710;2023-12-22T06:30:21;24.60;;;2.97;;
54307;SDS011;40208;39.778;2.710;2023-12-22T06:33:06;29.63;;;3.63;;
54307;SDS011;40208;39.778;2.710;2023-12-22T06:35:51;19.40;;;2.80;;
54307;SDS011;40208;39.778;2.710;2023-12-22T06:38:37;17.85;;;2.78;;
54307;SDS011;40208;39.778;2.710;2023-12-22T06:41:24;23.65;;;3.08;;
54307;SDS011;40208;39.778;2.710;2023-12-22T06:44:13;18.63;;;3.45;;
54307;SDS011;40208;39.778;2.710;2023-12-22T06:46:57;18.80;;;3.63;;
54307;SDS011;40208;39.778;2.710;2023-12-22T06:49:42;16.67;;;3.88;;
54307;SDS011;40208;39.778;2.710;2023-12-22T06:52:27;20.20;;;3.53;;
54307;SDS011;40208;39.778;2.710;2023-12-22T06:55:12;27.40;;;5.68;;
54307;SDS011;40208;39.778;2.710;2023-12-22T06:57:57;19.73;;;5.75;;
54307;SDS011;40208;39.778;2.710;2023-12-22T07:00:42;22.10;;;5.82;;
54307;SDS011;40208;39.778;2.710;2023-12-22T07:03:27;23.00;;;5.32;;
54307;SDS011;40208;39.778;2.710;2023-12-22T07:06:12;30.52;;;6.35;;
54307;SDS011;40208;39.778;2.710;2023-12-22T07:11:56;29.77;;;6.70;;
54307;SDS011;40208;39.778;2.710;2023-12-22T07:14:41;22.23;;;5.78;;
54307;SDS011;40208;39.778;2.710;2023-12-22T07:17:25;27.33;;;6.43;;
54307;SDS011;40208;39.778;2.710;2023-12-22T07:20:10;21.73;;;6.10;;
54307;SDS011;40208;39.778;2.710;2023-12-22T07:22:55;24.75;;;6.10;;
54307;SDS011;40208;39.778;2.710;2023-12-22T07:25:40;22.95;;;5.53;;
54307;SDS011;40208;39.778;2.710;2023-12-22T07:28:25;31.13;;;6.43;;
54307;SDS011;40208;39.778;2.710;2023-12-22T07:31:10;20.42;;;6.00;;
54307;SDS011;40208;39.778;2.710;2023-12-22T07:33:55;25.13;;;6.38;;
54307;SDS011;40208;39.778;2.710;2023-12-22T07:36:40;28.02;;;7.07;;
54307;SDS011;40208;39.778;2.710;2023-12-22T07:39:25;27.38;;;7.00;;
54307;SDS011;40208;39.778;2.710;2023-12-22T07:42:09;28.40;;;8.25;;
54307;SDS011;40208;39.778;2.710;2023-12-22T07:44:54;35.25;;;8.70;;
54307;SDS011;40208;39.778;2.710;2023-12-22T07:47:39;19.75;;;5.13;;
54307;SDS011;40208;39.778;2.710;2023-12-22T07:50:24;27.33;;;6.25;;
54307;SDS011;40208;39.778;2.710;2023-12-22T07:53:09;22.88;;;6.32;;
54307;SDS011;40208;39.778;2.710;2023-12-22T07:55:53;35.63;;;10.80;;
54307;SDS011;40208;39.778;2.710;2023-12-22T07:58:39;47.85;;;17.90;;
54307;SDS011;40208;39.778;2.710;2023-12-22T08:01:23;50.45;;;18.15;;
54307;SDS011;40208;39.778;2.710;2023-12-22T08:04:08;35.10;;;13.10;;
54307;SDS011;40208;39.778;2.710;2023-12-22T08:06:53;39.40;;;13.30;;
54307;SDS011;40208;39.778;2.710;2023-12-22T08:09:38;46.28;;;12.60;;
54307;SDS011;40208;39.778;2.710;2023-12-22T08:12:23;41.10;;;13.95;;
54307;SDS011;40208;39.778;2.710;2023-12-22T08:15:08;55.30;;;15.35;;
54307;SDS011;40208;39.778;2.710;2023-12-22T08:17:56;46.55;;;15.00;;
54307;SDS011;40208;39.778;2.710;2023-12-22T08:20:41;44.08;;;13.13;;
54307;SDS011;40208;39.778;2.710;2023-12-22T08:23:26;32.83;;;11.52;;
54307;SDS011;40208;39.778;2.710;2023-12-22T08:26:20;41.53;;;13.20;;
54307;SDS011;40208;39.778;2.710;2023-12-22T08:29:06;36.63;;;11.63;;
54307;SDS011;40208;39.778;2.710;2023-12-22T08:31:52;50.58;;;16.60;;
54307;SDS011;40208;39.778;2.710;2023-12-22T08:34:37;50.05;;;16.75;;
54307;SDS011;40208;39.778;2.710;2023-12-22T08:37:22;39.75;;;11.48;;
54307;SDS011;40208;39.778;2.710;2023-12-22T08:40:07;57.88;;;15.98;;
54307;SDS011;40208;39.778;2.710;2023-12-22T08:42:53;24.85;;;7.88;;
54307;SDS011;40208;39.778;2.710;2023-12-22T08:45:44;61.17;;;22.42;;
54307;SDS011;40208;39.778;2.710;2023-12-22T08:48:28;47.53;;;17.80;;
54307;SDS011;40208;39.778;2.710;2023-12-22T08:51:13;49.85;;;17.40;;
54307;SDS011;40208;39.778;2.710;2023-12-22T08:53:58;46.97;;;17.20;;
54307;SDS011;40208;39.778;2.710;2023-12-22T08:56:43;53.22;;;15.63;;
54307;SDS011;40208;39.778;2.710;2023-12-22T08:59:28;47.40;;;16.48;;
54307;SDS011;40208;39.778;2.710;2023-12-22T09:02:12;48.40;;;14.68;;
54307;SDS011;40208;39.778;2.710;2023-12-22T09:04:57;32.17;;;14.45;;
54307;SDS011;40208;39.778;2.710;2023-12-22T09:07:42;47.22;;;16.33;;
54307;SDS011;40208;39.778;2.710;2023-12-22T09:10:29;39.15;;;13.98;;
54307;SDS011;40208;39.778;2.710;2023-12-22T09:13:13;61.28;;;17.80;;
54307;SDS011;40208;39.778;2.710;2023-12-22T09:15:58;44.63;;;15.98;;
54307;SDS011;40208;39.778;2.710;2023-12-22T09:18:43;49.63;;;17.83;;
54307;SDS011;40208;39.778;2.710;2023-12-22T09:21:29;56.33;;;17.85;;
54307;SDS011;40208;39.778;2.710;2023-12-22T09:24:14;52.80;;;19.08;;
54307;SDS011;40208;39.778;2.710;2023-12-22T09:27:01;48.08;;;18.52;;
54307;SDS011;40208;39.778;2.710;2023-12-22T09:29:47;62.35;;;19.00;;
54307;SDS011;40208;39.778;2.710;2023-12-22T09:32:32;58.10;;;21.88;;
54307;SDS011;40208;39.778;2.710;2023-12-22T09:35:17;58.25;;;20.02;;
54307;SDS011;40208;39.778;2.710;2023-12-22T09:38:03;59.92;;;21.00;;
54307;SDS011;40208;39.778;2.710;2023-12-22T09:40:48;51.55;;;20.77;;
54307;SDS011;40208;39.778;2.710;2023-12-22T09:43:33;65.45;;;22.35;;
54307;SDS011;40208;39.778;2.710;2023-12-22T09:46:20;67.57;;;27.65;;
54307;SDS011;40208;39.778;2.710;2023-12-22T09:49:06;68.80;;;29.50;;
54307;SDS011;40208;39.778;2.710;2023-12-22T09:51:52;69.45;;;23.80;;
54307;SDS011;40208;39.778;2.710;2023-12-22T09:54:38;57.85;;;20.05;;
54307;SDS011;40208;39.778;2.710;2023-12-22T09:57:24;72.85;;;24.10;;
54307;SDS011;40208;39.778;2.710;2023-12-22T10:00:11;66.45;;;25.02;;
54307;SDS011;40208;39.778;2.710;2023-12-22T10:02:59;55.10;;;19.77;;
54307;SDS011;40208;39.778;2.710;2023-12-22T10:05:44;58.33;;;19.00;;
54307;SDS011;40208;39.778;2.710;2023-12-22T10:08:29;54.40;;;17.95;;
54307;SDS011;40208;39.778;2.710;2023-12-22T10:11:15;45.92;;;16.55;;
54307;SDS011;40208;39.778;2.710;2023-12-22T10:14:00;47.70;;;15.70;;
54307;SDS011;40208;39.778;2.710;2023-12-22T10:16:47;50.35;;;17.23;;
54307;SDS011;40208;39.778;2.710;2023-12-22T10:19:35;45.80;;;13.98;;
54307;SDS011;40208;39.778;2.710;2023-12-22T10:22:20;51.22;;;14.93;;
54307;SDS011;40208;39.778;2.710;2023-12-22T10:25:08;44.10;;;13.27;;
54307;SDS011;40208;39.778;2.710;2023-12-22T10:27:53;42.40;;;12.90;;
54307;SDS011;40208;39.778;2.710;2023-12-22T10:30:38;35.38;;;12.95;;
54307;SDS011;40208;39.778;2.710;2023-12-22T10:33:24;35.92;;;13.00;;
54307;SDS011;40208;39.778;2.710;2023-12-22T10:36:09;45.75;;;14.20;;
54307;SDS011;40208;39.778;2.710;2023-12-22T10:38:54;39.55;;;11.90;;
54307;SDS011;40208;39.778;2.710;2023-12-22T10:41:40;31.80;;;9.52;;
54307;SDS011;40208;39.778;2.710;2023-12-22T10:44:25;38.03;;;10.70;;
54307;SDS011;40208;39.778;2.710;2023-12-22T10:47:10;30.65;;;10.40;;
54307;SDS011;40208;39.778;2.710;2023-12-22T10:49:55;33.72;;;10.45;;
54307;SDS011;40208;39.778;2.710;2023-12-22T10:52:40;35.47;;;9.70;;
54307;SDS011;40208;39.778;2.710;2023-12-22T10:55:25;37.88;;;8.13;;
54307;SDS011;40208;39.778;2.710;2023-12-22T10:58:10;68.63;;;22.13;;
54307;SDS011;40208;39.778;2.710;2023-12-22T11:00:55;47.55;;;13.85;;
54307;SDS011;40208;39.778;2.710;2023-12-22T11:03:40;42.47;;;13.75;;
54307;SDS011;40208;39.778;2.710;2023-12-22T11:06:35;63.90;;;21.20;;
54307;SDS011;40208;39.778;2.710;2023-12-22T11:09:21;52.92;;;19.85;;
54307;SDS011;40208;39.778;2.710;2023-12-22T11:12:09;48.13;;;13.70;;
54307;SDS011;40208;39.778;2.710;2023-12-22T11:14:56;30.95;;;10.15;;
54307;SDS011;40208;39.778;2.710;2023-12-22T11:17:42;33.63;;;11.27;;
54307;SDS011;40208;39.778;2.710;2023-12-22T11:20:27;42.30;;;15.30;;
54307;SDS011;40208;39.778;2.710;2023-12-22T11:23:17;39.25;;;13.80;;
54307;SDS011;40208;39.778;2.710;2023-12-22T11:26:03;34.35;;;10.55;;
54307;SDS011;40208;39.778;2.710;2023-12-22T11:28:49;21.35;;;7.00;;
54307;SDS011;40208;39.778;2.710;2023-12-22T11:31:35;24.55;;;6.13;;
54307;SDS011;40208;39.778;2.710;2023-12-22T11:34:21;31.70;;;7.97;;
54307;SDS011;40208;39.778;2.710;2023-12-22T11:37:06;34.38;;;5.90;;
54307;SDS011;40208;39.778;2.710;2023-12-22T11:39:52;26.65;;;6.60;;
54307;SDS011;40208;39.778;2.710;2023-12-22T11:42:38;27.00;;;7.80;;
54307;SDS011;40208;39.778;2.710;2023-12-22T11:45:30;26.40;;;7.57;;
54307;SDS011;40208;39.778;2.710;2023-12-22T11:48:15;26.13;;;7.65;;
54307;SDS011;40208;39.778;2.710;2023-12-22T11:51:00;26.90;;;7.20;;
54307;SDS011;40208;39.778;2.710;2023-12-22T11:53:45;28.85;;;6.25;;
54307;SDS011;40208;39.778;2.710;2023-12-22T11:56:30;22.48;;;5.38;;
54307;SDS011;40208;39.778;2.710;2023-12-22T11:59:16;22.23;;;6.15;;
54307;SDS011;40208;39.778;2.710;2023-12-22T12:02:01;20.02;;;5.07;;
54307;SDS011;40208;39.778;2.710;2023-12-22T12:04:53;25.83;;;6.57;;
54307;SDS011;40208;39.778;2.710;2023-12-22T12:13:17;26.80;;;4.63;;
54307;SDS011;40208;39.778;2.710;2023-12-22T12:16:08;24.27;;;4.38;;
54307;SDS011;40208;39.778;2.710;2023-12-22T12:18:55;27.15;;;4.45;;
54307;SDS011;40208;39.778;2.710;2023-12-22T12:21:40;28.35;;;4.57;;
54307;SDS011;40208;39.778;2.710;2023-12-22T12:24:25;35.83;;;6.35;;
54307;SDS011;40208;39.778;2.710;2023-12-22T12:27:11;25.25;;;6.15;;
54307;SDS011;40208;39.778;2.710;2023-12-22T12:30:12;24.92;;;5.70;;
54307;SDS011;40208;39.778;2.710;2023-12-22T12:32:58;17.33;;;3.47;;
54307;SDS011;40208;39.778;2.710;2023-12-22T12:35:50;16.42;;;3.63;;
54307;SDS011;40208;39.778;2.710;2023-12-22T12:41:31;22.88;;;4.97;;
54307;SDS011;40208;39.778;2.710;2023-12-22T12:44:16;19.52;;;4.18;;
54307;SDS011;40208;39.778;2.710;2023-12-22T12:47:14;18.88;;;3.72;;
54307;SDS011;40208;39.778;2.710;2023-12-22T12:50:02;19.13;;;3.53;;
54307;SDS011;40208;39.778;2.710;2023-12-22T12:52:47;27.90;;;3.97;;
54307;SDS011;40208;39.778;2.710;2023-12-22T12:55:32;16.70;;;3.95;;
54307;SDS011;40208;39.778;2.710;2023-12-22T12:58:16;14.93;;;3.53;;
54307;SDS011;40208;39.778;2.710;2023-12-22T13:01:08;17.83;;;3.80;;
54307;SDS011;40208;39.778;2.710;2023-12-22T13:03:56;12.80;;;3.75;;
54307;SDS011;40208;39.778;2.710;2023-12-22T13:06:42;26.27;;;7.55;;
54307;SDS011;40208;39.778;2.710;2023-12-22T13:09:31;25.17;;;10.20;;
54307;SDS011;40208;39.778;2.710;2023-12-22T13:12:20;84.05;;;39.15;;
54307;SDS011;40208;39.778;2.710;2023-12-22T13:15:05;83.90;;;45.28;;
54307;SDS011;40208;39.778;2.710;2023-12-22T13:17:50;82.60;;;39.15;;
54307;SDS011;40208;39.778;2.710;2023-12-22T13:20:36;69.93;;;36.38;;
54307;SDS011;40208;39.778;2.710;2023-12-22T13:23:21;85.05;;;34.78;;
54307;SDS011;40208;39.778;2.710;2023-12-22T13:26:06;45.85;;;19.92;;
54307;SDS011;40208;39.778;2.710;2023-12-22T13:29:01;42.17;;;14.98;;
54307;SDS011;40208;39.778;2.710;2023-12-22T13:31:47;34.33;;;10.13;;
54307;SDS011;40208;39.778;2.710;2023-12-22T13:34:32;21.85;;;6.80;;
54307;SDS011;40208;39.778;2.710;2023-12-22T13:37:20;16.23;;;6.63;;
54307;SDS011;40208;39.778;2.710;2023-12-22T13:40:07;31.45;;;8.10;;
54307;SDS011;40208;39.778;2.710;2023-12-22T13:42:56;27.10;;;9.73;;
54307;SDS011;40208;39.778;2.710;2023-12-22T13:45:42;19.95;;;8.43;;
54307;SDS011;40208;39.778;2.710;2023-12-22T13:48:27;24.90;;;8.60;;
54307;SDS011;40208;39.778;2.710;2023-12-22T13:51:12;19.15;;;6.47;;
54307;SDS011;40208;39.778;2.710;2023-12-22T13:53:58;17.00;;;6.82;;
54307;SDS011;40208;39.778;2.710;2023-12-22T13:56:44;24.02;;;9.52;;
54307;SDS011;40208;39.778;2.710;2023-12-22T13:59:33;22.65;;;6.53;;
54307;SDS011;40208;39.778;2.710;2023-12-22T14:02:21;15.30;;;4.50;;
54307;SDS011;40208;39.778;2.710;2023-12-22T14:05:07;13.77;;;3.87;;
54307;SDS011;40208;39.778;2.710;2023-12-22T14:07:52;16.20;;;3.78;;
54307;SDS011;40208;39.778;2.710;2023-12-22T14:10:37;13.60;;;4.72;;
54307;SDS011;40208;39.778;2.710;2023-12-22T14:13:22;15.18;;;5.18;;
54307;SDS011;40208;39.778;2.710;2023-12-22T14:16:07;16.52;;;4.38;;
54307;SDS011;40208;39.778;2.710;2023-12-22T14:18:52;16.00;;;4.78;;
54307;SDS011;40208;39.778;2.710;2023-12-22T14:21:37;13.98;;;3.80;;
54307;SDS011;40208;39.778;2.710;2023-12-22T14:24:21;12.48;;;4.97;;
54307;SDS011;40208;39.778;2.710;2023-12-22T14:27:06;16.38;;;5.47;;
54307;SDS011;40208;39.778;2.710;2023-12-22T14:29:51;12.52;;;4.75;;
54307;SDS011;40208;39.778;2.710;2023-12-22T14:32:36;13.38;;;5.57;;
54307;SDS011;40208;39.778;2.710;2023-12-22T14:35:22;12.73;;;4.70;;
54307;SDS011;40208;39.778;2.710;2023-12-22T14:38:06;15.27;;;4.65;;
54307;SDS011;40208;39.778;2.710;2023-12-22T14:40:52;11.95;;;4.50;;
54307;SDS011;40208;39.778;2.710;2023-12-22T14:43:37;13.73;;;3.78;;
54307;SDS011;40208;39.778;2.710;2023-12-22T14:46:21;12.93;;;4.13;;
54307;SDS011;40208;39.778;2.710;2023-12-22T14:49:06;11.98;;;2.88;;
54307;SDS011;40208;39.778;2.710;2023-12-22T14:51:51;13.07;;;4.05;;
54307;SDS011;40208;39.778;2.710;2023-12-22T14:54:38;14.02;;;4.50;;
54307;SDS011;40208;39.778;2.710;2023-12-22T14:57:23;12.73;;;4.90;;
54307;SDS011;40208;39.778;2.710;2023-12-22T15:00:08;15.18;;;4.38;;
54307;SDS011;40208;39.778;2.710;2023-12-22T15:02:54;13.85;;;4.78;;
54307;SDS011;40208;39.778;2.710;2023-12-22T15:05:39;16.27;;;4.60;;
54307;SDS011;40208;39.778;2.710;2023-12-22T15:08:25;12.30;;;4.13;;
54307;SDS011;40208;39.778;2.710;2023-12-22T15:11:10;10.73;;;4.45;;
54307;SDS011;40208;39.778;2.710;2023-12-22T15:13:55;13.65;;;4.43;;
54307;SDS011;40208;39.778;2.710;2023-12-22T15:16:43;15.68;;;5.15;;
54307;SDS011;40208;39.778;2.710;2023-12-22T15:19:31;13.93;;;3.90;;
54307;SDS011;40208;39.778;2.710;2023-12-22T15:22:16;12.88;;;4.25;;
54307;SDS011;40208;39.778;2.710;2023-12-22T15:25:02;14.38;;;4.28;;
54307;SDS011;40208;39.778;2.710;2023-12-22T15:27:48;8.93;;;4.50;;
54307;SDS011;40208;39.778;2.710;2023-12-22T15:30:33;16.80;;;5.20;;
54307;SDS011;40208;39.778;2.710;2023-12-22T15:33:19;12.73;;;5.18;;
54307;SDS011;40208;39.778;2.710;2023-12-22T15:36:04;12.82;;;5.18;;
54307;SDS011;40208;39.778;2.710;2023-12-22T15:38:49;12.30;;;5.03;;
54307;SDS011;40208;39.778;2.710;2023-12-22T15:41:38;16.35;;;5.32;;
54307;SDS011;40208;39.778;2.710;2023-12-22T15:44:23;13.02;;;4.97;;
54307;SDS011;40208;39.778;2.710;2023-12-22T15:47:08;20.95;;;5.40;;
54307;SDS011;40208;39.778;2.710;2023-12-22T15:49:53;14.45;;;6.13;;
54307;SDS011;40208;39.778;2.710;2023-12-22T15:52:47;15.80;;;6.97;;
54307;SDS011;40208;39.778;2.710;2023-12-22T15:56:28;16.90;;;8.02;;
54307;SDS011;40208;39.778;2.710;2023-12-22T15:59:13;18.33;;;7.85;;
54307;SDS011;40208;39.778;2.710;2023-12-22T16:01:57;23.85;;;11.85;;
54307;SDS011;40208;39.778;2.710;2023-12-22T16:04:42;24.40;;;11.85;;
54307;SDS011;40208;39.778;2.710;2023-12-22T16:07:29;21.23;;;12.35;;
54307;SDS011;40208;39.778;2.710;2023-12-22T16:10:14;28.40;;;11.75;;
54307;SDS011;40208;39.778;2.710;2023-12-22T16:12:59;19.08;;;9.55;;
54307;SDS011;40208;39.778;2.710;2023-12-22T16:15:44;17.60;;;9.25;;
54307;SDS011;40208;39.778;2.710;2023-12-22T16:18:29;16.58;;;9.05;;
54307;SDS011;40208;39.778;2.710;2023-12-22T16:21:14;15.38;;;8.02;;
54307;SDS011;40208;39.778;2.710;2023-12-22T16:23:59;20.48;;;7.75;;
54307;SDS011;40208;39.778;2.710;2023-12-22T16:26:44;19.48;;;8.73;;
54307;SDS011;40208;39.778;2.710;2023-12-22T16:29:28;19.45;;;8.52;;
54307;SDS011;40208;39.778;2.710;2023-12-22T16:32:13;16.73;;;5.68;;
54307;SDS011;40208;39.778;2.710;2023-12-22T16:34:59;17.38;;;6.25;;
54307;SDS011;40208;39.778;2.710;2023-12-22T16:37:44;19.55;;;7.10;;